createdAt,value
2018-09-14T00:00:53.247Z,22.70
2018-09-14T00:03:22.612Z,22.70
2018-09-14T00:05:51.204Z,22.70
2018-09-14T00:08:19.509Z,22.80
2018-09-14T00:10:49.047Z,22.70
2018-09-14T00:13:17.365Z,22.70
2018-09-14T00:15:45.662Z,22.70
2018-09-14T00:18:13.987Z,22.70
2018-09-14T00:20:42.273Z,22.60
2018-09-14T00:23:10.572Z,22.50
2018-09-14T00:25:38.839Z,22.50
2018-09-14T00:28:08.191Z,22.50
2018-09-14T00:30:36.489Z,22.50
2018-09-14T00:33:04.833Z,22.50
2018-09-14T00:35:33.123Z,22.50
2018-09-14T00:38:01.413Z,22.50
2018-09-14T00:40:29.737Z,22.50
2018-09-14T00:42:58.045Z,22.50
2018-09-14T00:45:26.419Z,22.50
2018-09-14T00:47:54.718Z,22.50
2018-09-14T00:50:22.993Z,22.40
2018-09-14T00:52:51.281Z,22.50
2018-09-14T00:55:19.577Z,22.50
2018-09-14T00:57:47.883Z,22.50
2018-09-14T01:00:16.186Z,22.50
2018-09-14T01:02:44.482Z,22.50
2018-09-14T01:05:12.787Z,22.50
2018-09-14T01:07:41.089Z,22.50
2018-09-14T01:10:09.393Z,22.50
2018-09-14T01:12:37.653Z,22.40
2018-09-14T01:15:05.954Z,22.40
2018-09-14T01:17:34.294Z,22.40
2018-09-14T01:20:03.727Z,22.40
2018-09-14T01:22:31.961Z,22.40
2018-09-14T01:25:00.249Z,22.40
2018-09-14T01:27:28.545Z,22.40
2018-09-14T01:29:56.825Z,22.40
2018-09-14T01:32:25.106Z,22.30
2018-09-14T01:34:53.410Z,22.40
2018-09-14T01:37:22.726Z,22.40
2018-09-14T01:39:53.202Z,22.30
2018-09-14T01:42:21.567Z,22.30
2018-09-14T01:44:49.862Z,22.40
2018-09-14T01:47:18.245Z,22.40
2018-09-14T01:49:46.591Z,22.40
2018-09-14T01:52:14.967Z,22.40
2018-09-14T01:54:43.270Z,22.40
2018-09-14T01:57:11.584Z,22.40
2018-09-14T01:59:39.900Z,22.50
2018-09-14T02:02:09.218Z,22.50
2018-09-14T02:04:37.578Z,22.40
2018-09-14T02:07:06.903Z,22.40
2018-09-14T02:09:35.227Z,22.50
2018-09-14T02:12:03.597Z,22.50
2018-09-14T02:14:31.910Z,22.40
2018-09-14T02:17:00.278Z,22.50
2018-09-14T02:19:28.666Z,22.40
2018-09-14T02:21:56.982Z,22.40
2018-09-14T02:24:25.306Z,22.40
2018-09-14T02:26:53.613Z,22.40
2018-09-14T02:29:23.002Z,22.30
2018-09-14T02:31:52.363Z,22.30
2018-09-14T02:34:20.675Z,22.30
2018-09-14T02:36:49.115Z,22.30
2018-09-14T02:39:17.434Z,22.30
2018-09-14T02:41:45.927Z,22.30
2018-09-14T02:44:14.263Z,22.30
2018-09-14T02:46:42.555Z,22.40
2018-09-14T02:49:10.911Z,22.40
2018-09-14T02:51:39.216Z,22.50
2018-09-14T02:54:08.162Z,22.40
2018-09-14T02:56:36.475Z,22.50
2018-09-14T02:59:04.874Z,22.40
2018-09-14T03:01:33.186Z,22.40
2018-09-14T03:04:01.582Z,22.40
2018-09-14T03:06:30.926Z,22.30
2018-09-14T03:08:59.251Z,22.30
2018-09-14T03:11:27.619Z,22.20
2018-09-14T03:13:55.934Z,22.20
2018-09-14T03:16:24.251Z,22.20
2018-09-14T03:18:53.654Z,22.20
2018-09-14T03:21:22.001Z,22.20
2018-09-14T03:23:50.294Z,22.20
2018-09-14T03:26:18.620Z,22.30
2018-09-14T03:28:46.881Z,22.40
2018-09-14T03:31:15.202Z,22.40
2018-09-14T03:33:43.470Z,22.40
2018-09-14T03:36:11.782Z,22.30
2018-09-14T03:38:40.194Z,22.30
2018-09-14T03:41:08.508Z,22.30
2018-09-14T03:43:36.831Z,22.30
2018-09-14T03:46:05.594Z,22.30
2018-09-14T03:48:33.918Z,22.30
2018-09-14T03:51:02.214Z,22.30
2018-09-14T03:53:30.530Z,22.30
2018-09-14T03:55:58.865Z,22.30
2018-09-14T03:58:27.230Z,22.30
2018-09-14T04:00:55.531Z,22.20
2018-09-14T04:03:23.971Z,22.20
2018-09-14T04:05:52.277Z,22.20
2018-09-14T04:08:20.610Z,22.20
2018-09-14T04:10:48.923Z,22.20
2018-09-14T04:13:17.242Z,22.20
2018-09-14T04:15:45.570Z,22.20
2018-09-14T04:18:13.846Z,22.20
2018-09-14T04:20:42.270Z,22.20
2018-09-14T04:23:10.638Z,22.20
2018-09-14T04:25:38.990Z,22.20
2018-09-14T04:28:07.306Z,22.20
2018-09-14T04:30:35.794Z,22.30
2018-09-14T04:33:04.210Z,22.30
2018-09-14T04:35:33.530Z,22.20
2018-09-14T04:38:01.921Z,22.20
2018-09-14T04:40:30.210Z,22.20
2018-09-14T04:42:58.538Z,22.20
2018-09-14T04:45:26.913Z,22.20
2018-09-14T04:47:55.220Z,22.20
2018-09-14T04:50:23.926Z,22.20
2018-09-14T04:52:52.237Z,22.20
2018-09-14T04:55:20.586Z,22.10
2018-09-14T04:57:48.910Z,22.20
2018-09-14T05:00:18.255Z,22.20
2018-09-14T05:02:46.598Z,22.20
2018-09-14T05:05:15.915Z,22.20
2018-09-14T05:07:44.304Z,22.20
2018-09-14T05:10:13.606Z,22.20
2018-09-14T05:12:41.957Z,22.20
2018-09-14T05:15:11.289Z,22.20
2018-09-14T05:17:39.635Z,22.30
2018-09-14T05:22:36.005Z,22.30
2018-09-14T05:25:04.388Z,22.20
2018-09-14T05:27:32.823Z,22.30
2018-09-14T05:30:01.190Z,22.40
2018-09-14T05:32:29.477Z,22.30
2018-09-14T05:34:57.794Z,22.30
2018-09-14T05:37:27.118Z,22.30
2018-09-14T05:39:55.450Z,22.20
2018-09-14T05:42:23.769Z,22.30
2018-09-14T05:44:52.080Z,22.30
2018-09-14T05:47:21.404Z,22.20
2018-09-14T05:49:49.715Z,22.20
2018-09-14T05:52:18.018Z,22.20
2018-09-14T05:54:46.366Z,22.20
2018-09-14T05:57:15.725Z,22.20
2018-09-14T05:59:44.037Z,22.20
2018-09-14T06:02:13.377Z,22.20
2018-09-14T06:04:41.746Z,22.30
2018-09-14T06:07:11.850Z,22.20
2018-09-14T06:09:40.994Z,22.20
2018-09-14T06:12:10.030Z,22.20
2018-09-14T06:14:39.056Z,22.30
2018-09-14T06:17:08.195Z,22.30
2018-09-14T06:19:37.238Z,22.30
2018-09-14T06:22:06.429Z,22.30
2018-09-14T06:24:35.426Z,22.40
2018-09-14T06:27:04.582Z,22.40
2018-09-14T06:29:33.430Z,22.30
2018-09-14T06:32:02.713Z,22.40
2018-09-14T06:34:32.704Z,22.40
2018-09-14T06:37:01.026Z,22.30
2018-09-14T06:39:31.410Z,22.20
2018-09-14T06:41:59.743Z,22.30
2018-09-14T06:44:28.041Z,22.30
2018-09-14T06:46:56.362Z,22.30
2018-09-14T06:49:24.730Z,22.30
2018-09-14T06:51:53.047Z,22.30
2018-09-14T06:54:22.447Z,22.30
2018-09-14T06:56:50.746Z,22.40
2018-09-14T06:59:19.081Z,22.30
2018-09-14T07:01:47.452Z,22.20
2018-09-14T07:04:15.820Z,22.30
2018-09-14T07:06:44.258Z,22.30
2018-09-14T07:09:12.556Z,22.30
2018-09-14T07:11:40.946Z,22.40
2018-09-14T07:14:09.303Z,22.30
2018-09-14T07:16:37.680Z,22.30
2018-09-14T07:19:06.010Z,22.40
2018-09-14T07:21:34.322Z,22.40
2018-09-14T07:24:02.684Z,22.30
2018-09-14T07:26:30.983Z,22.30
2018-09-14T07:28:59.536Z,22.30
2018-09-14T07:31:27.805Z,22.30
2018-09-14T07:33:56.106Z,22.30
2018-09-14T07:36:24.552Z,22.30
2018-09-14T07:38:52.838Z,22.30
2018-09-14T07:41:21.237Z,22.20
2018-09-14T07:43:49.538Z,22.20
2018-09-14T07:46:17.952Z,22.20
2018-09-14T07:48:46.265Z,22.30
2018-09-14T07:51:14.670Z,22.30
2018-09-14T07:53:43.078Z,22.30
2018-09-14T07:56:11.402Z,22.20
2018-09-14T07:58:41.839Z,22.20
2018-09-14T08:01:10.201Z,22.20
2018-09-14T08:03:38.510Z,22.30
2018-09-14T08:06:06.877Z,22.20
2018-09-14T08:08:35.179Z,22.30
2018-09-14T08:11:04.483Z,22.20
2018-09-14T08:13:32.926Z,22.20
2018-09-14T08:16:01.233Z,22.20
2018-09-14T08:18:29.651Z,22.20
2018-09-14T08:20:58.029Z,22.30
2018-09-14T08:23:26.378Z,22.30
2018-09-14T08:25:54.694Z,22.30
2018-09-14T08:28:23.057Z,22.30
2018-09-14T08:30:51.382Z,22.20
2018-09-14T08:33:19.692Z,22.20
2018-09-14T08:35:48.082Z,22.20
2018-09-14T08:38:16.418Z,22.40
2018-09-14T08:40:44.857Z,22.30
2018-09-14T08:43:13.169Z,22.30
2018-09-14T08:45:42.763Z,22.30
2018-09-14T08:48:11.142Z,22.30
2018-09-14T08:50:39.403Z,22.40
2018-09-14T08:53:07.649Z,22.30
2018-09-14T08:55:36.105Z,22.30
2018-09-14T08:58:04.601Z,22.30
2018-09-14T09:00:33.010Z,22.30
2018-09-14T09:03:01.293Z,22.30
2018-09-14T09:05:29.582Z,22.30
2018-09-14T09:07:57.848Z,22.30
2018-09-14T09:10:26.214Z,22.30
2018-09-14T09:12:54.517Z,22.30
2018-09-14T09:15:23.910Z,22.30
2018-09-14T09:17:52.209Z,22.30
2018-09-14T09:20:20.434Z,22.30
2018-09-14T09:22:48.724Z,22.30
2018-09-14T09:25:17.062Z,22.30
2018-09-14T09:27:45.383Z,22.30
2018-09-14T09:30:13.697Z,22.30
2018-09-14T09:32:42.099Z,22.30
2018-09-14T09:35:10.568Z,22.30
2018-09-14T09:37:38.910Z,22.30
2018-09-14T09:40:07.226Z,22.30
2018-09-14T09:42:35.703Z,22.30
2018-09-14T09:45:04.035Z,22.30
2018-09-14T09:47:32.483Z,22.30
2018-09-14T09:50:00.786Z,22.30
2018-09-14T09:52:29.207Z,22.30
2018-09-14T09:54:57.465Z,22.30
2018-09-14T09:57:25.785Z,22.30
2018-09-14T09:59:54.201Z,22.30
2018-09-14T10:02:27.823Z,22.30
2018-09-14T10:05:01.567Z,22.30
2018-09-14T10:07:29.948Z,22.30
2018-09-14T10:09:58.287Z,22.30
2018-09-14T10:12:27.665Z,22.30
2018-09-14T10:14:55.971Z,22.40
2018-09-14T10:17:24.267Z,22.40
2018-09-14T10:19:52.574Z,22.40
2018-09-14T10:22:21.909Z,22.40
2018-09-14T10:24:50.200Z,22.40
2018-09-14T10:27:18.531Z,22.40
2018-09-14T10:29:46.842Z,22.30
2018-09-14T10:32:15.185Z,22.40
2018-09-14T10:34:43.494Z,22.40
2018-09-14T10:37:11.817Z,22.40
2018-09-14T10:39:40.129Z,22.40
2018-09-14T10:42:08.397Z,22.40
2018-09-14T10:44:36.718Z,22.40
2018-09-14T10:47:06.037Z,22.40
2018-09-14T10:49:34.353Z,22.50
2018-09-14T10:52:03.695Z,22.40
2018-09-14T10:54:32.170Z,22.50
2018-09-14T10:57:01.560Z,22.50
2018-09-14T10:59:30.126Z,22.50
2018-09-14T11:01:58.505Z,22.50
2018-09-14T11:04:28.805Z,22.50
2018-09-14T11:06:57.101Z,22.50
2018-09-14T11:09:26.392Z,22.50
2018-09-14T11:11:55.729Z,22.50
2018-09-14T11:14:25.118Z,22.50
2018-09-14T11:16:53.468Z,22.50
2018-09-14T11:19:21.824Z,22.50
2018-09-14T11:21:50.147Z,22.50
2018-09-14T11:24:18.453Z,22.50
2018-09-14T11:26:46.819Z,22.50
2018-09-14T11:29:15.190Z,22.60
2018-09-14T11:31:43.570Z,22.60
2018-09-14T11:34:11.910Z,22.60
2018-09-14T11:36:40.262Z,22.60
2018-09-14T11:39:09.622Z,22.60
2018-09-14T11:41:38.213Z,22.60
2018-09-14T11:44:06.669Z,22.60
2018-09-14T11:46:35.021Z,22.60
2018-09-14T11:49:03.370Z,22.60
2018-09-14T11:51:31.718Z,22.60
2018-09-14T11:54:01.105Z,22.60
2018-09-14T11:56:33.490Z,22.60
2018-09-14T11:59:02.837Z,22.60
2018-09-14T12:01:32.365Z,22.60
2018-09-14T12:04:02.079Z,22.60
2018-09-14T12:06:31.506Z,22.60
2018-09-14T12:08:59.882Z,22.60
2018-09-14T12:11:28.323Z,22.60
2018-09-14T12:13:56.677Z,22.60
2018-09-14T12:16:24.959Z,22.60
2018-09-14T12:18:53.276Z,22.60
2018-09-14T12:21:21.601Z,22.60
2018-09-14T12:23:49.907Z,22.60
2018-09-14T12:26:18.267Z,22.60
2018-09-14T12:28:46.749Z,22.60
2018-09-14T12:31:15.094Z,22.60
2018-09-14T12:33:43.497Z,22.60
2018-09-14T12:36:12.037Z,22.60
2018-09-14T12:38:40.526Z,22.70
2018-09-14T12:41:08.986Z,22.60
2018-09-14T12:43:37.344Z,22.60
2018-09-14T12:46:05.753Z,22.60
2018-09-14T12:48:35.876Z,22.70
2018-09-14T12:51:04.346Z,22.70
2018-09-14T12:53:32.689Z,22.70
2018-09-14T12:56:01.093Z,22.70
2018-09-14T12:58:29.425Z,22.70
2018-09-14T13:00:57.799Z,22.70
2018-09-14T13:03:29.061Z,22.70
2018-09-14T13:05:57.406Z,22.70
2018-09-14T13:08:25.708Z,22.70
2018-09-14T13:10:54.074Z,22.70
2018-09-14T13:13:22.386Z,22.80
2018-09-14T13:15:50.718Z,22.80
2018-09-14T13:18:19.040Z,22.70
2018-09-14T13:20:47.329Z,22.80
2018-09-14T13:23:15.653Z,22.80
2018-09-14T13:25:43.976Z,22.80
2018-09-14T13:28:12.357Z,22.80
2018-09-14T13:30:40.677Z,22.80
2018-09-14T13:33:09.002Z,22.80
2018-09-14T13:35:37.327Z,22.80
2018-09-14T13:38:05.744Z,22.80
2018-09-14T13:40:34.098Z,22.80
2018-09-14T13:43:03.457Z,22.80
2018-09-14T13:45:31.785Z,22.80
2018-09-14T13:48:01.133Z,22.80
2018-09-14T13:50:29.482Z,22.80
2018-09-14T13:52:58.880Z,22.80
2018-09-14T13:55:27.117Z,22.80
2018-09-14T13:57:55.473Z,22.80
2018-09-14T14:00:23.808Z,22.80
2018-09-14T14:02:52.185Z,22.80
2018-09-14T14:05:20.567Z,22.80
2018-09-14T14:07:48.922Z,22.80
2018-09-14T14:10:18.393Z,22.80
2018-09-14T14:12:46.724Z,22.80
2018-09-14T14:15:15.137Z,22.80
2018-09-14T14:17:43.527Z,22.90
2018-09-14T14:20:11.786Z,22.80
2018-09-14T14:22:40.130Z,22.80
2018-09-14T14:25:08.422Z,22.90
2018-09-14T14:27:36.805Z,22.80
2018-09-14T14:30:05.162Z,22.80
2018-09-14T14:32:33.482Z,22.90
2018-09-14T14:35:01.829Z,22.80
2018-09-14T14:37:30.292Z,22.90
2018-09-14T14:39:58.679Z,22.90
2018-09-14T14:42:27.029Z,22.90
2018-09-14T14:44:56.766Z,22.90
2018-09-14T14:47:25.106Z,22.90
2018-09-14T14:49:53.434Z,22.90
2018-09-14T14:52:21.787Z,22.90
2018-09-14T14:54:50.090Z,22.90
2018-09-14T14:57:18.457Z,22.90
2018-09-14T14:59:46.794Z,22.90
2018-09-14T15:02:15.117Z,22.90
2018-09-14T15:04:43.488Z,22.90
2018-09-14T15:07:11.839Z,22.90
2018-09-14T15:09:40.214Z,22.90
2018-09-14T15:12:08.513Z,22.90
2018-09-14T15:14:36.876Z,22.90
2018-09-14T15:17:05.251Z,22.90
2018-09-14T15:19:33.571Z,22.90
2018-09-14T15:22:01.902Z,22.90
2018-09-14T15:24:30.222Z,23.00
2018-09-14T15:26:58.578Z,23.00
2018-09-14T15:29:26.894Z,23.00
2018-09-14T15:31:55.221Z,23.00
2018-09-14T15:34:23.649Z,23.00
2018-09-14T15:36:52.013Z,23.00
2018-09-14T15:39:20.384Z,23.00
2018-09-14T15:41:48.746Z,23.00
2018-09-14T15:44:17.071Z,23.00
2018-09-14T15:46:45.409Z,23.00
2018-09-14T15:49:13.764Z,23.00
2018-09-14T15:51:42.114Z,23.00
2018-09-14T15:54:10.469Z,23.00
2018-09-14T15:56:38.799Z,23.00
2018-09-14T15:59:07.120Z,23.00
2018-09-14T16:01:35.479Z,23.00
2018-09-14T16:04:03.796Z,23.00
2018-09-14T16:06:32.126Z,23.00
2018-09-14T16:09:00.431Z,23.00
2018-09-14T16:11:28.775Z,23.00
2018-09-14T16:13:58.113Z,23.00
2018-09-14T16:16:27.202Z,23.00
2018-09-14T16:18:55.618Z,23.00
2018-09-14T16:21:23.914Z,23.00
2018-09-14T16:23:52.260Z,23.00
2018-09-14T16:26:20.842Z,23.00
2018-09-14T16:28:49.407Z,23.00
2018-09-14T16:31:17.761Z,23.00
2018-09-14T16:33:46.096Z,23.00
2018-09-14T16:36:14.497Z,23.00
2018-09-14T16:38:42.858Z,23.00
2018-09-14T16:41:11.261Z,23.00
2018-09-14T16:43:39.592Z,23.00
2018-09-14T16:46:07.932Z,23.00
2018-09-14T16:48:36.269Z,23.00
2018-09-14T16:53:38.363Z,23.00
2018-09-14T16:56:06.972Z,23.00
2018-09-14T16:58:35.319Z,23.00
2018-09-14T17:01:03.650Z,23.00
2018-09-14T17:03:32.083Z,23.00
2018-09-14T17:06:00.394Z,23.00
2018-09-14T17:08:28.742Z,23.00
2018-09-14T17:10:58.102Z,23.00
2018-09-14T17:13:26.442Z,23.00
2018-09-14T17:15:54.798Z,23.00
2018-09-14T17:18:23.166Z,23.00
2018-09-14T17:20:52.830Z,23.00
2018-09-14T17:23:22.728Z,23.00
2018-09-14T17:25:52.998Z,23.00
2018-09-14T17:28:22.483Z,23.00
2018-09-14T17:30:51.235Z,23.00
2018-09-14T17:33:19.731Z,23.00
2018-09-14T17:35:49.073Z,23.00
2018-09-14T17:38:17.525Z,23.00
2018-09-14T17:40:45.754Z,23.00
2018-09-14T17:43:14.352Z,23.00
2018-09-14T17:45:42.851Z,23.00
2018-09-14T17:48:11.165Z,23.00
2018-09-14T17:50:39.538Z,23.00
2018-09-14T17:53:08.847Z,23.00
2018-09-14T17:55:37.182Z,23.00
2018-09-14T17:58:05.599Z,23.00
2018-09-14T18:00:33.879Z,23.00
2018-09-14T18:03:02.259Z,23.00
2018-09-14T18:05:30.590Z,22.90
2018-09-14T18:07:58.990Z,22.90
2018-09-14T18:10:27.401Z,22.90
2018-09-14T18:12:55.747Z,22.90
2018-09-14T18:15:24.090Z,22.90
2018-09-14T18:17:52.410Z,22.90
2018-09-14T18:22:48.881Z,22.80
2018-09-14T18:25:17.513Z,22.90
2018-09-14T18:27:45.932Z,22.90
2018-09-14T18:30:15.274Z,22.90
2018-09-14T18:32:43.606Z,22.90
2018-09-14T18:35:11.974Z,22.90
2018-09-14T18:37:40.358Z,22.90
2018-09-14T18:40:08.719Z,22.90
2018-09-14T18:42:37.116Z,22.90
2018-09-14T18:45:06.509Z,22.90
2018-09-14T18:47:34.869Z,22.80
2018-09-14T18:50:03.233Z,22.80
2018-09-14T18:52:32.076Z,22.90
2018-09-14T18:55:02.213Z,22.80
2018-09-14T18:57:31.377Z,22.80
2018-09-14T19:00:00.648Z,22.90
2018-09-14T19:02:30.500Z,22.90
2018-09-14T19:05:00.665Z,22.90
2018-09-14T19:07:29.859Z,22.90
2018-09-14T19:09:58.874Z,22.90
2018-09-14T19:12:28.002Z,22.90
2018-09-14T19:14:57.290Z,22.90
2018-09-14T19:17:27.156Z,22.90
2018-09-14T19:19:57.182Z,23.00
2018-09-14T19:22:27.213Z,23.00
2018-09-14T19:24:56.243Z,23.00
2018-09-14T19:27:25.215Z,23.00
2018-09-14T19:29:54.255Z,23.00
2018-09-14T19:32:22.600Z,23.00
2018-09-14T19:34:50.906Z,23.00
2018-09-14T19:37:19.256Z,23.00
2018-09-14T19:39:48.166Z,23.00
2018-09-14T19:42:18.212Z,23.00
2018-09-14T19:44:46.663Z,23.00
2018-09-14T19:47:15.579Z,23.00
2018-09-14T19:49:44.631Z,23.00
2018-09-14T19:52:13.733Z,23.00
2018-09-14T19:54:44.485Z,23.00
2018-09-14T19:57:14.691Z,23.00
2018-09-14T19:59:43.929Z,23.00
2018-09-14T20:02:13.082Z,23.00
2018-09-14T20:04:42.264Z,22.90
2018-09-14T20:07:12.435Z,22.90
2018-09-14T20:09:41.576Z,22.90
2018-09-14T20:12:11.638Z,22.90
2018-09-14T20:14:40.337Z,22.90
2018-09-14T20:17:09.722Z,22.90
2018-09-14T20:19:38.158Z,23.00
2018-09-14T20:22:06.977Z,23.00
2018-09-14T20:24:35.285Z,22.90
2018-09-14T20:27:03.633Z,22.90
2018-09-14T20:29:32.058Z,22.90
2018-09-14T20:32:00.474Z,22.90
2018-09-14T20:34:28.810Z,23.00
2018-09-14T20:36:57.186Z,22.90
2018-09-14T20:39:26.588Z,22.90
2018-09-14T20:41:54.913Z,23.00
2018-09-14T20:44:23.246Z,23.00
2018-09-14T20:46:51.609Z,22.90
2018-09-14T20:49:19.975Z,22.90
2018-09-14T20:51:48.374Z,22.90
2018-09-14T20:54:16.690Z,22.90
2018-09-14T20:56:45.122Z,22.90
2018-09-14T20:59:13.450Z,22.90
2018-09-14T21:01:41.858Z,22.90
2018-09-14T21:04:10.254Z,22.90
2018-09-14T21:06:38.599Z,22.90
2018-09-14T21:09:08.357Z,22.90
2018-09-14T21:11:37.826Z,22.90
2018-09-14T21:14:06.299Z,22.90
2018-09-14T21:16:34.998Z,22.90
2018-09-14T21:19:03.901Z,22.90
2018-09-14T21:21:34.417Z,22.90
2018-09-14T21:24:02.754Z,22.90
2018-09-14T21:26:31.143Z,22.90
2018-09-14T21:28:59.578Z,22.90
2018-09-14T21:31:27.894Z,22.90
2018-09-14T21:33:56.221Z,22.90
2018-09-14T21:36:24.583Z,22.90
2018-09-14T21:38:52.917Z,21.90
2018-09-14T21:41:22.307Z,22.80
2018-09-14T21:43:50.636Z,22.80
2018-09-14T21:46:18.969Z,22.80
2018-09-14T21:48:47.365Z,22.80
2018-09-14T21:51:15.659Z,22.80
2018-09-14T21:53:44.049Z,22.70
2018-09-14T21:56:12.334Z,22.70
2018-09-14T21:58:40.674Z,22.70
2018-09-14T22:01:14.465Z,22.70
2018-09-14T22:03:44.471Z,22.60
2018-09-14T22:06:12.802Z,22.60
2018-09-14T22:08:41.156Z,22.60
2018-09-14T22:11:09.510Z,22.60
2018-09-14T22:13:38.865Z,22.60
2018-09-14T22:16:07.179Z,22.60
2018-09-14T22:18:35.541Z,22.70
2018-09-14T22:21:03.857Z,22.60
2018-09-14T22:23:32.219Z,22.60
2018-09-14T22:26:00.542Z,22.60
2018-09-14T22:28:28.958Z,22.60
2018-09-14T22:30:57.281Z,22.60
2018-09-14T22:33:25.612Z,22.60
2018-09-14T22:35:53.973Z,22.60
2018-09-14T22:38:22.334Z,22.60
2018-09-14T22:40:50.685Z,22.60
2018-09-14T22:43:20.021Z,22.60
2018-09-14T22:45:48.361Z,22.60
2018-09-14T22:48:16.695Z,22.60
2018-09-14T22:50:45.011Z,22.60
2018-09-14T22:53:13.326Z,22.60
2018-09-14T22:55:41.581Z,22.60
2018-09-14T22:58:10.596Z,22.50
2018-09-14T23:00:44.847Z,22.50
2018-09-14T23:03:13.887Z,22.60
2018-09-14T23:05:42.529Z,22.60
2018-09-14T23:08:10.834Z,22.60
2018-09-14T23:10:40.931Z,22.50
2018-09-14T23:13:10.081Z,22.50
2018-09-14T23:15:39.190Z,22.60
2018-09-14T23:18:08.118Z,22.50
2018-09-14T23:20:37.315Z,22.50
2018-09-14T23:23:05.674Z,22.50
2018-09-14T23:25:34.098Z,22.50
2018-09-14T23:28:03.255Z,22.50
2018-09-14T23:30:32.378Z,22.50
2018-09-14T23:33:01.517Z,22.50
2018-09-14T23:35:30.611Z,22.50
2018-09-14T23:37:59.630Z,22.50
2018-09-14T23:40:28.444Z,22.50
2018-09-14T23:42:57.381Z,22.50
2018-09-14T23:45:25.782Z,22.50
2018-09-14T23:47:54.138Z,22.40
2018-09-14T23:50:22.493Z,22.40
2018-09-14T23:52:50.829Z,22.40
2018-09-14T23:55:20.153Z,22.50
2018-09-14T23:57:48.469Z,22.50
